Time;durP1;ratioP1;P1;durP2;ratioP2;P2;SDS_P1;SDS_P2;PMS_P1;PMS_P2;Temp;Humidity;BMP_temperature;BMP_pressure;BME280_temperature;BME280_humidity;BME280_pressure;Samples;Min_cycle;Max_cycle;Signal;HPM_P1;HPM_P2
2022/08/16 00:02:50;;;;;;;9.60;8.60;;;;;;;19.11;82.07;99456.98;130414;1268;108741;-73
2022/08/16 00:05:56;;;;;;;11.50;8.40;;;;;;;19.05;81.94;99458.02;130162;1268;108586;-73
2022/08/16 00:09:01;;;;;;;9.50;8.20;;;;;;;19.00;82.12;99458.20;130302;1268;108862;-73
2022/08/16 00:12:07;;;;;;;10.40;8.80;;;;;;;18.98;82.19;99459.02;130326;1268;108253;-73
2022/08/16 00:15:19;;;;;;;9.70;8.80;;;;;;;18.97;82.20;99455.16;130376;1268;107630;-73
2022/08/16 00:18:23;;;;;;;;;;;;;;;18.96;82.26;99451.81;130389;1268;108744;-73
2022/08/16 00:21:28;;;;;;;9.70;8.00;;;;;;;18.94;82.31;99450.80;130325;1268;107614;-73
2022/08/16 00:24:34;;;;;;;9.50;8.50;;;;;;;18.91;82.37;99448.44;130410;1268;108858;-75
2022/08/16 00:27:40;;;;;;;10.40;9.30;;;;;;;18.92;82.53;99457.73;130303;1268;107689;-72
2022/08/16 00:30:45;;;;;;;13.80;10.20;;;;;;;18.91;82.60;99451.41;130418;1268;108254;-73
2022/08/16 00:33:50;;;;;;;9.10;8.20;;;;;;;18.84;82.90;99452.14;130496;1268;108730;-74
2022/08/16 00:36:56;;;;;;;8.80;7.70;;;;;;;18.76;82.70;99452.06;130324;1267;108694;-74
2022/08/16 00:40:01;;;;;;;9.30;7.80;;;;;;;18.76;82.74;99454.59;130226;1268;108886;-74
2022/08/16 00:43:11;;;;;;;10.90;8.30;;;;;;;18.77;82.89;99453.88;130186;1268;108867;-72
2022/08/16 00:46:23;;;;;;;9.50;8.50;;;;;;;18.79;82.68;99451.12;130340;1268;108811;-72
2022/08/16 00:49:28;;;;;;;9.70;8.30;;;;;;;18.75;82.69;99446.84;130323;1268;107828;-72
2022/08/16 00:52:34;;;;;;;9.60;8.60;;;;;;;18.73;82.70;99448.45;130342;1268;108880;-72
2022/08/16 00:55:43;;;;;;;9.40;8.00;;;;;;;18.71;82.93;99449.68;130218;1268;109042;-74
2022/08/16 00:58:48;;;;;;;9.90;8.20;;;;;;;18.69;82.93;99452.82;130353;1268;108774;-72
2022/08/16 01:01:54;;;;;;;9.20;8.30;;;;;;;18.68;83.03;99453.81;130303;1267;108904;-72
2022/08/16 01:05:01;;;;;;;12.10;9.00;;;;;;;18.68;83.15;99453.66;130354;1268;109009;-74
2022/08/16 01:08:09;;;;;;;10.10;7.80;;;;;;;18.63;83.08;99456.75;130198;1268;109024;-74
2022/08/16 01:11:15;;;;;;;10.10;7.50;;;;;;;18.57;83.04;99458.19;130334;1268;108871;-74
2022/08/16 01:14:26;;;;;;;9.40;8.00;;;;;;;18.50;83.04;99453.87;130462;1268;108892;-74
2022/08/16 01:17:33;;;;;;;11.80;9.30;;;;;;;18.49;83.29;99455.58;130404;1268;109126;-75
2022/08/16 01:20:45;;;;;;;11.00;9.80;;;;;;;18.52;83.37;99456.41;130426;1268;108916;-74
2022/08/16 01:24:00;;;;;;;12.40;8.60;;;;;;;18.50;83.26;99452.54;130439;1268;108786;-72
2022/08/16 01:27:10;;;;;;;10.30;8.80;;;;;;;18.41;83.38;99450.66;130167;1268;108725;-74
2022/08/16 01:30:19;;;;;;;10.00;9.00;;;;;;;18.34;83.30;99449.14;130458;1268;107718;-73
2022/08/16 01:33:25;;;;;;;10.80;9.50;;;;;;;18.29;83.48;99448.59;130270;1268;108838;-72
2022/08/16 01:36:32;;;;;;;10.20;9.20;;;;;;;18.30;83.65;99440.98;130447;1268;108727;-72
2022/08/16 01:39:37;;;;;;;10.40;8.90;;;;;;;18.28;83.49;99440.91;130158;1268;108861;-73
2022/08/16 01:42:44;;;;;;;9.50;8.50;;;;;;;18.21;83.53;99432.38;130251;1268;107633;-74
2022/08/16 01:45:52;;;;;;;10.50;8.80;;;;;;;18.21;83.66;99433.55;130253;1268;108709;-74
2022/08/16 01:49:02;;;;;;;10.20;8.60;;;;;;;18.18;83.60;99434.67;130352;1268;109103;-74
2022/08/16 01:52:10;;;;;;;11.80;9.30;;;;;;;18.14;83.66;99434.16;130330;1268;108529;-74
2022/08/16 01:55:31;;;;;;;12.70;10.00;;;;;;;18.07;83.33;99431.07;130328;1268;108539;-74
2022/08/16 01:58:37;;;;;;;9.40;8.40;;;;;;;17.96;83.71;99427.73;130283;1268;108776;-75
2022/08/16 02:01:44;;;;;;;9.80;8.80;;;;;;;17.88;83.78;99430.70;130276;1268;107885;-76
2022/08/16 02:04:49;;;;;;;10.60;8.60;;;;;;;17.89;84.10;99429.45;130159;1268;108943;-76
2022/08/16 02:07:57;;;;;;;10.20;9.20;;;;;;;17.93;84.24;99426.51;130241;1268;108780;-75
2022/08/16 02:11:04;;;;;;;10.00;9.00;;;;;;;17.95;84.05;99424.66;130409;1268;108681;-75
2022/08/16 02:14:10;;;;;;;12.10;9.80;;;;;;;17.92;84.34;99424.61;130285;1268;108731;-76
2022/08/16 02:17:15;;;;;;;10.20;8.60;;;;;;;17.91;84.68;99416.57;130371;1268;108807;-76
2022/08/16 02:20:23;;;;;;;10.10;9.10;;;;;;;17.91;84.53;99412.49;130227;1268;107911;-77
2022/08/16 02:23:29;;;;;;;13.30;10.40;;;;;;;17.92;84.77;99411.95;130367;1268;108790;-76
2022/08/16 02:26:34;;;;;;;11.70;10.50;;;;;;;17.95;84.75;99413.38;130339;1268;108553;-77
2022/08/16 02:29:41;;;;;;;10.10;9.10;;;;;;;17.93;84.53;99411.15;130262;1267;108620;-75
2022/08/16 02:32:47;;;;;;;16.80;8.90;;;;;;;17.89;84.54;99412.42;130359;1268;108908;-76
2022/08/16 02:35:52;;;;;;;10.00;8.80;;;;;;;17.90;84.54;99412.13;130425;1267;108660;-77
2022/08/16 02:38:58;;;;;;;10.10;9.00;;;;;;;17.90;84.72;99412.92;130438;1268;108717;-76
2022/08/16 02:42:03;;;;;;;11.40;9.80;;;;;;;17.89;84.47;99414.00;130418;1268;108786;-76
2022/08/16 02:45:10;;;;;;;10.10;9.00;;;;;;;17.79;84.29;99417.02;130179;1268;108812;-75
2022/08/16 02:48:15;;;;;;;10.00;8.80;;;;;;;17.69;84.41;99424.06;130387;1268;107765;-75
2022/08/16 02:51:21;;;;;;;10.60;9.00;;;;;;;17.69;84.81;99418.82;130329;1268;108804;-73
2022/08/16 02:54:27;;;;;;;12.70;9.90;;;;;;;17.75;84.74;99414.51;130433;1268;108856;-75
2022/08/16 02:57:34;;;;;;;11.00;9.50;;;;;;;17.74;84.76;99403.84;130414;1268;108882;-73
2022/08/16 03:00:39;;;;;;;11.60;9.60;;;;;;;17.66;84.63;99395.73;130267;1268;108980;-74
2022/08/16 03:03:47;;;;;;;9.90;8.80;;;;;;;17.58;84.87;99393.06;130203;1267;108844;-75
2022/08/16 03:06:54;;;;;;;11.00;9.00;;;;;;;17.54;84.76;99386.46;130354;1268;108817;-73
2022/08/16 03:10:03;;;;;;;10.30;9.30;;;;;;;17.47;85.02;99385.15;130403;1268;108712;-73
2022/08/16 03:13:09;;;;;;;11.40;10.20;;;;;;;17.45;84.73;99387.53;130400;1268;107769;-73
2022/08/16 03:16:16;;;;;;;10.20;9.10;;;;;;;17.48;84.98;99392.78;130446;1268;109194;-74
2022/08/16 03:19:24;;;;;;;12.50;10.20;;;;;;;17.45;84.85;99397.44;130353;1268;108777;-73
2022/08/16 03:22:30;;;;;;;11.40;10.00;;;;;;;17.48;84.97;99396.19;130406;1268;109028;-73
2022/08/16 03:25:38;;;;;;;13.40;10.50;;;;;;;17.50;84.86;99400.36;130338;1268;108791;-73
2022/08/16 03:28:43;;;;;;;12.80;10.60;;;;;;;17.49;85.21;99402.27;130317;1268;108556;-73
2022/08/16 03:31:50;;;;;;;12.40;9.90;;;;;;;17.50;85.25;99403.50;130390;1268;108681;-73
2022/08/16 03:34:56;;;;;;;13.90;11.20;;;;;;;17.47;85.25;99408.14;130124;1268;109206;-73
2022/08/16 03:38:03;;;;;;;13.60;11.70;;;;;;;17.45;85.36;99408.93;130350;1268;108743;-73
2022/08/16 03:41:12;;;;;;;13.90;12.50;;;;;;;17.47;85.32;99413.20;130343;1268;108750;-73
2022/08/16 03:44:18;;;;;;;56.20;26.30;;;;;;;17.44;85.26;99418.20;130338;1268;108844;-73
2022/08/16 03:47:24;;;;;;;34.30;19.60;;;;;;;17.39;85.05;99423.29;130062;1268;108844;-73
2022/08/16 03:50:30;;;;;;;26.20;14.70;;;;;;;17.34;85.24;99426.94;130359;1268;108990;-73
2022/08/16 03:53:36;;;;;;;21.10;13.80;;;;;;;17.34;85.28;99431.95;130363;1268;107698;-73
2022/08/16 03:56:42;;;;;;;21.60;13.10;;;;;;;17.37;85.54;99435.21;130361;1268;108649;-73
2022/08/16 03:59:47;;;;;;;18.70;12.30;;;;;;;17.36;85.15;99431.27;130330;1267;108721;-74
2022/08/16 04:02:54;;;;;;;20.10;12.40;;;;;;;17.37;85.48;99429.98;130335;1268;108863;-74
2022/08/16 04:06:00;;;;;;;16.30;11.20;;;;;;;17.44;85.43;99435.48;130211;1270;108874;-73
2022/08/16 04:09:06;;;;;;;13.50;9.30;;;;;;;17.48;85.11;99436.21;130191;1271;109163;-73
2022/08/16 04:12:12;;;;;;;12.10;9.30;;;;;;;17.45;85.34;99441.95;130174;1269;108687;-73
2022/08/16 04:15:19;;;;;;;11.60;10.10;;;;;;;17.49;85.23;99449.15;130177;1271;108780;-73
2022/08/16 04:18:35;;;;;;;13.60;10.60;;;;;;;17.47;85.32;99447.80;129122;1271;1440096;-73
2022/08/16 04:21:42;;;;;;;18.90;10.90;;;;;;;17.48;85.45;99448.95;130128;1271;108796;-73
2022/08/16 04:24:47;;;;;;;10.60;8.70;;;;;;;17.55;85.51;99451.94;130162;1271;109031;-75
2022/08/16 04:27:53;;;;;;;11.70;10.00;;;;;;;17.56;85.35;99450.90;130229;1270;108840;-74
2022/08/16 04:30:58;;;;;;;11.20;9.90;;;;;;;17.58;85.70;99447.07;130189;1271;108664;-74
2022/08/16 04:34:04;;;;;;;12.80;10.40;;;;;;;17.65;85.59;99448.70;130155;1270;108674;-73
2022/08/16 04:37:11;;;;;;;12.50;10.80;;;;;;;17.72;85.76;99451.11;130174;1271;108753;-73
2022/08/16 04:40:23;;;;;;;12.30;10.00;;;;;;;17.82;85.74;99449.86;130142;1270;109048;-73
2022/08/16 04:43:29;;;;;;;13.50;12.10;;;;;;;17.97;86.10;99451.88;130175;1271;108764;-73
2022/08/16 04:46:36;;;;;;;23.50;16.20;;;;;;;18.17;86.06;99455.91;130186;1269;108891;-73
2022/08/16 04:49:43;;;;;;;19.40;15.90;;;;;;;18.36;86.31;99465.23;130186;1270;108827;-73
2022/08/16 04:52:52;;;;;;;19.00;14.40;;;;;;;18.45;86.60;99461.52;130184;1271;107747;-73
2022/08/16 04:55:59;;;;;;;19.00;14.00;;;;;;;18.58;86.77;99462.33;130097;1271;108896;-74
2022/08/16 04:59:07;;;;;;;17.60;13.20;;;;;;;18.77;86.74;99461.13;130260;1271;108784;-73
2022/08/16 05:02:12;;;;;;;17.10;14.10;;;;;;;18.98;86.66;99463.77;130183;1269;108763;-73
2022/08/16 05:05:19;;;;;;;17.20;13.40;;;;;;;19.15;86.73;99464.78;130438;1268;108858;-73
2022/08/16 05:08:27;;;;;;;15.10;12.20;;;;;;;19.31;86.62;99471.27;130455;1268;108769;-73
2022/08/16 05:11:35;;;;;;;13.60;10.70;;;;;;;19.42;86.60;99473.69;130472;1268;108966;-73
2022/08/16 05:14:42;;;;;;;14.30;11.90;;;;;;;19.54;86.63;99478.09;130465;1268;108894;-73
2022/08/16 05:17:48;;;;;;;13.40;12.00;;;;;;;19.70;86.99;99480.20;130287;1268;108955;-73
2022/08/16 05:20:53;;;;;;;13.10;11.70;;;;;;;19.86;87.25;99478.77;130509;1268;109096;-73
2022/08/16 05:24:00;;;;;;;11.80;10.40;;;;;;;19.95;87.07;99482.69;130458;1268;108840;-74
2022/08/16 05:27:08;;;;;;;11.40;9.70;;;;;;;20.08;87.11;99490.94;130497;1268;108964;-74
2022/08/16 05:30:15;;;;;;;12.10;10.70;;;;;;;20.22;87.17;99484.83;130274;1269;108848;-73
2022/08/16 05:33:21;;;;;;;12.20;10.80;;;;;;;20.27;86.95;99490.33;130474;1268;108811;-75
2022/08/16 05:36:27;;;;;;;12.50;10.50;;;;;;;20.26;87.06;99488.89;130495;1268;108954;-74
2022/08/16 05:39:34;;;;;;;10.90;9.30;;;;;;;20.24;87.18;99489.54;130472;1268;108680;-74
2022/08/16 05:42:39;;;;;;;9.90;8.90;;;;;;;20.26;87.21;99488.01;130458;1268;107654;-74
2022/08/16 05:45:45;;;;;;;11.00;9.80;;;;;;;20.33;87.39;99492.45;130460;1268;108795;-74
2022/08/16 05:48:51;;;;;;;10.70;9.60;;;;;;;20.40;87.47;99489.80;130483;1268;108774;-74
2022/08/16 05:51:58;;;;;;;13.60;12.20;;;;;;;20.51;87.76;99486.35;130438;1268;108789;-74
2022/08/16 05:55:06;;;;;;;14.40;12.90;;;;;;;20.61;88.06;99482.56;130413;1268;108893;-74
2022/08/16 05:58:12;;;;;;;15.70;13.10;;;;;;;20.73;88.34;99475.65;130297;1268;108776;-74
2022/08/16 06:01:18;;;;;;;14.50;13.00;;;;;;;20.91;88.33;99483.51;130412;1268;109018;-74
2022/08/16 06:04:26;;;;;;;15.60;14.00;;;;;;;21.07;88.39;99485.83;130462;1268;108797;-74
2022/08/16 06:07:31;;;;;;;15.10;13.40;;;;;;;21.25;88.56;99490.61;130426;1268;108561;-74
2022/08/16 06:10:43;;;;;;;15.80;13.20;;;;;;;21.39;88.51;99487.42;130272;1268;108823;-74
2022/08/16 06:13:48;;;;;;;15.20;13.60;;;;;;;21.53;88.53;99487.54;130472;1268;108998;-73
2022/08/16 06:16:57;;;;;;;15.10;13.70;;;;;;;21.71;88.49;99477.54;130499;1268;108916;-74
2022/08/16 06:20:04;;;;;;;16.80;15.00;;;;;;;21.87;87.89;99469.74;130381;1268;108812;-74
2022/08/16 06:23:09;;;;;;;11.00;10.00;;;;;;;22.01;87.85;99468.35;130498;1268;108809;-74
2022/08/16 06:26:24;;;;;;;14.80;13.30;;;;;;;22.14;87.03;99475.13;130445;1268;108776;-73
2022/08/16 06:29:29;;;;;;;19.00;15.30;;;;;;;22.31;87.48;99483.23;130525;1268;108918;-74
2022/08/16 06:32:35;;;;;;;17.10;13.60;;;;;;;22.50;87.06;99483.73;130413;1267;108800;-74
2022/08/16 06:35:40;;;;;;;12.70;10.60;;;;;;;22.67;86.25;99488.43;130495;1268;108742;-74
2022/08/16 06:38:46;;;;;;;11.50;10.40;;;;;;;22.84;85.67;99488.85;130501;1268;108887;-74
2022/08/16 06:41:57;;;;;;;15.50;13.90;;;;;;;23.01;85.82;99488.33;130472;1268;108722;-74
2022/08/16 06:45:36;;;;;;;12.90;11.70;;;;;;;23.17;86.66;99485.37;130373;1268;109059;-74
2022/08/16 06:48:51;;;;;;;13.60;12.20;;;;;;;23.28;86.12;99483.27;130482;1268;108969;-75
2022/08/16 06:51:56;;;;;;;12.20;11.00;;;;;;;23.34;85.95;99480.92;130120;1268;108778;-75
2022/08/16 06:55:06;;;;;;;14.20;12.80;;;;;;;23.42;85.21;99483.66;130354;1268;108850;-73
2022/08/16 06:58:13;;;;;;;14.90;13.20;;;;;;;23.53;84.95;99484.82;130384;1268;108899;-73
2022/08/16 07:01:19;;;;;;;13.90;12.40;;;;;;;23.67;85.01;99491.55;130408;1268;107698;-75
2022/08/16 07:04:26;;;;;;;15.40;13.90;;;;;;;23.80;84.35;99490.86;130399;1268;108886;-73
2022/08/16 07:07:32;;;;;;;14.40;13.00;;;;;;;23.89;83.87;99490.96;130356;1268;108721;-73
2022/08/16 07:10:38;;;;;;;14.00;12.60;;;;;;;23.98;83.93;99496.59;130390;1268;108762;-75
2022/08/16 07:13:44;;;;;;;14.60;12.60;;;;;;;24.05;84.57;99491.41;130491;1268;108763;-76
2022/08/16 07:16:50;;;;;;;13.60;12.10;;;;;;;24.06;83.79;99492.79;130473;1268;108753;-75
2022/08/16 07:19:56;;;;;;;17.80;13.80;;;;;;;24.10;83.24;99500.11;130458;1268;108931;-75
2022/08/16 07:23:05;;;;;;;13.50;12.10;;;;;;;24.22;84.09;99503.02;130344;1268;108810;-75
2022/08/16 07:26:25;;;;;;;14.60;13.30;;;;;;;24.33;83.36;99502.35;130299;1268;108847;-75
2022/08/16 07:29:32;;;;;;;13.90;12.40;;;;;;;24.41;83.51;99505.51;130173;1268;108971;-75
2022/08/16 07:32:39;;;;;;;14.60;11.90;;;;;;;24.48;83.54;99504.85;130343;1268;108959;-76
2022/08/16 07:35:45;;;;;;;13.80;12.40;;;;;;;24.55;83.35;99502.73;130340;1268;108503;-76
2022/08/16 07:38:52;;;;;;;13.20;12.00;;;;;;;24.64;82.87;99496.13;130383;1268;108734;-75
2022/08/16 07:41:58;;;;;;;15.80;13.60;;;;;;;24.73;82.33;99501.63;130346;1268;108681;-75
2022/08/16 07:45:03;;;;;;;13.80;12.40;;;;;;;24.88;82.69;99504.05;130378;1268;106831;-75
2022/08/16 07:48:09;;;;;;;11.40;10.40;;;;;;;25.07;81.44;99494.42;130362;1268;108903;-75
2022/08/16 07:51:16;;;;;;;14.40;13.00;;;;;;;25.26;81.38;99493.95;130389;1268;108865;-73
2022/08/16 07:54:22;;;;;;;15.30;13.80;;;;;;;25.40;81.18;99495.41;130373;1268;108895;-75
2022/08/16 07:57:33;;;;;;;15.80;14.20;;;;;;;25.61;81.36;99493.16;130341;1268;108914;-75
2022/08/16 08:00:39;;;;;;;16.40;14.70;;;;;;;25.77;81.50;99491.86;130490;1268;108572;-75
2022/08/16 08:03:46;;;;;;;18.30;14.60;;;;;;;25.89;80.27;99498.59;130391;1268;109500;-75
2022/08/16 08:06:52;;;;;;;15.70;14.20;;;;;;;25.85;80.67;99500.88;130380;1268;109013;-73
2022/08/16 08:09:58;;;;;;;14.50;13.20;;;;;;;25.92;80.58;99503.10;130339;1268;108880;-75
2022/08/16 08:13:04;;;;;;;17.40;13.70;;;;;;;26.00;80.41;99497.48;130329;1268;108662;-73
2022/08/16 08:16:11;;;;;;;13.80;12.50;;;;;;;26.12;80.33;99498.45;130339;1268;108724;-75
2022/08/16 08:19:16;;;;;;;13.40;12.20;;;;;;;26.22;78.95;99495.11;130396;1268;108750;-72
2022/08/16 08:22:23;;;;;;;12.80;11.60;;;;;;;26.38;79.02;99494.25;130381;1268;108827;-73
2022/08/16 08:25:35;;;;;;;14.20;12.70;;;;;;;26.53;78.23;99500.24;130369;1268;108830;-73
2022/08/16 08:28:40;;;;;;;13.40;12.10;;;;;;;26.57;78.06;99505.22;130303;1268;108646;-73
2022/08/16 08:31:47;;;;;;;12.30;11.20;;;;;;;26.53;78.33;99500.41;130454;1268;109016;-72
2022/08/16 08:34:52;;;;;;;12.20;11.00;;;;;;;26.41;77.70;99505.04;130385;1268;108643;-76
2022/08/16 08:37:58;;;;;;;14.70;12.40;;;;;;;26.32;77.68;99500.29;130349;1267;108961;-75
2022/08/16 08:41:07;;;;;;;12.30;11.20;;;;;;;26.26;77.76;99500.68;130483;1268;108950;-75
2022/08/16 08:44:13;;;;;;;14.00;12.60;;;;;;;26.21;77.96;99505.99;130437;1268;108857;-75
2022/08/16 08:47:19;;;;;;;12.00;10.70;;;;;;;26.13;77.71;99503.10;130266;1268;108993;-75
2022/08/16 08:50:26;;;;;;;10.80;9.80;;;;;;;26.15;77.07;99511.46;130329;1268;108832;-75
2022/08/16 08:53:32;;;;;;;14.00;12.60;;;;;;;26.23;76.96;99514.14;130320;1268;108860;-75
2022/08/16 08:56:40;;;;;;;13.10;11.70;;;;;;;26.30;76.80;99511.45;130353;1268;108613;-76
2022/08/16 08:59:51;;;;;;;12.00;10.90;;;;;;;26.29;76.52;99512.81;130362;1268;108793;-75
2022/08/16 09:02:58;;;;;;;12.90;11.60;;;;;;;26.32;76.22;99512.42;130417;1268;108654;-76
2022/08/16 09:06:05;;;;;;;11.80;10.70;;;;;;;26.38;75.91;99514.77;130505;1268;108639;-76
2022/08/16 09:09:14;;;;;;;11.20;10.10;;;;;;;26.46;75.13;99518.54;130394;1268;108818;-73
2022/08/16 09:12:20;;;;;;;12.10;10.80;;;;;;;26.45;74.31;99517.06;130336;1268;109135;-73
2022/08/16 09:15:47;;;;;;;12.20;11.10;;;;;;;26.41;74.47;99513.79;130410;1268;108719;-76
2022/08/16 09:18:54;;;;;;;11.90;10.70;;;;;;;26.42;74.23;99515.91;130420;1267;109036;-74
2022/08/16 09:22:00;;;;;;;11.40;10.30;;;;;;;26.44;74.28;99519.64;130407;1268;108643;-74
2022/08/16 09:25:08;;;;;;;10.90;9.90;;;;;;;26.44;73.94;99520.83;130351;1268;109171;-73
2022/08/16 09:28:14;;;;;;;9.50;8.50;;;;;;;26.44;73.02;99520.23;130339;1268;109032;-74
2022/08/16 09:31:24;;;;;;;10.80;9.70;;;;;;;26.39;72.77;99520.95;130372;1268;108891;-73
2022/08/16 09:34:29;;;;;;;10.70;9.40;;;;;;;26.43;72.76;99520.35;130367;1268;107230;-73
2022/08/16 09:37:36;;;;;;;11.50;10.40;;;;;;;26.48;72.79;99524.66;130383;1267;108050;-73
2022/08/16 09:40:42;;;;;;;12.70;11.40;;;;;;;26.50;72.44;99527.77;130457;1268;109015;-76
2022/08/16 09:43:48;;;;;;;12.20;11.00;;;;;;;26.49;72.22;99526.84;130485;1268;109938;-75
2022/08/16 09:46:55;;;;;;;12.50;11.30;;;;;;;26.49;71.55;99528.59;130467;1268;108828;-76
2022/08/16 09:50:01;;;;;;;12.30;11.10;;;;;;;26.54;72.21;99521.59;130454;1268;108900;-76
2022/08/16 09:53:09;;;;;;;13.00;9.70;;;;;;;26.61;72.22;99519.20;130439;1268;109643;-76
2022/08/16 09:56:24;;;;;;;10.30;9.00;;;;;;;26.67;71.60;99520.55;130481;1268;108854;-76
2022/08/16 09:59:30;;;;;;;9.90;8.90;;;;;;;26.74;71.23;99516.04;130471;1268;108925;-76
2022/08/16 10:02:35;;;;;;;10.60;9.00;;;;;;;26.78;70.59;99519.58;130411;1268;108967;-75
2022/08/16 10:05:40;;;;;;;11.00;9.90;;;;;;;26.82;71.07;99520.61;130152;1268;108699;-76
2022/08/16 10:08:46;;;;;;;10.60;9.50;;;;;;;26.86;71.17;99526.52;130331;1268;108733;-74
2022/08/16 10:15:19;;;;;;;10.90;9.80;;;;;;;26.91;70.68;99531.91;130342;1268;108217;-74
2022/08/16 10:18:26;;;;;;;11.10;10.00;;;;;;;26.99;70.59;99533.08;130351;1268;108723;-74
2022/08/16 10:21:31;;;;;;;10.40;9.30;;;;;;;27.12;70.63;99531.83;130387;1268;107483;-74
2022/08/16 10:24:37;;;;;;;11.20;9.20;;;;;;;27.31;70.44;99533.52;130348;1268;108815;-74
2022/08/16 10:27:43;;;;;;;10.30;9.40;;;;;;;27.51;69.59;99535.39;130389;1268;108733;-74
2022/08/16 10:30:48;;;;;;;12.10;9.60;;;;;;;27.66;69.39;99539.46;130374;1268;108661;-74
2022/08/16 10:33:54;;;;;;;12.70;10.00;;;;;;;27.77;68.95;99540.27;130382;1268;108865;-74
2022/08/16 10:37:00;;;;;;;10.10;9.00;;;;;;;27.87;68.40;99539.49;130383;1268;108862;-74
2022/08/16 10:40:08;;;;;;;12.50;9.40;;;;;;;28.01;68.73;99539.09;130372;1268;109194;-74
2022/08/16 10:43:14;;;;;;;10.10;9.10;;;;;;;28.17;68.29;99540.27;130357;1268;108910;-74
2022/08/16 10:46:20;;;;;;;12.00;9.80;;;;;;;28.26;68.23;99544.04;130376;1268;108801;-74
2022/08/16 10:49:25;;;;;;;10.30;9.20;;;;;;;28.22;67.37;99550.31;130362;1268;108930;-74
2022/08/16 10:52:32;;;;;;;10.00;8.90;;;;;;;28.17;67.49;99549.15;130341;1268;108777;-74
2022/08/16 10:55:41;;;;;;;10.80;8.10;;;;;;;28.11;66.53;99550.09;130343;1268;109602;-75
2022/08/16 10:58:47;;;;;;;10.60;8.00;;;;;;;28.04;66.09;99555.23;130344;1268;108980;-74
2022/08/16 11:01:52;;;;;;;10.00;8.60;;;;;;;28.02;65.60;99553.44;130364;1268;107000;-74
2022/08/16 11:04:58;;;;;;;9.60;8.70;;;;;;;27.98;66.33;99550.73;130331;1268;108802;-74
2022/08/16 11:08:06;;;;;;;9.40;8.40;;;;;;;27.99;66.33;99552.14;130295;1268;108723;-74
2022/08/16 11:11:13;;;;;;;21.90;10.20;;;;;;;27.98;65.93;99549.46;130353;1268;108604;-74
2022/08/16 11:14:19;;;;;;;12.80;9.20;;;;;;;27.94;65.51;99550.55;130380;1267;108972;-74
2022/08/16 11:17:25;;;;;;;11.90;8.70;;;;;;;27.89;65.70;99553.63;130366;1268;108734;-74
2022/08/16 11:20:30;;;;;;;13.00;9.50;;;;;;;27.79;65.61;99553.74;130363;1268;107273;-73
2022/08/16 11:23:36;;;;;;;10.90;9.00;;;;;;;27.71;65.80;99553.30;130383;1268;107686;-74
2022/08/16 11:26:41;;;;;;;11.00;9.50;;;;;;;27.64;65.57;99555.42;130370;1267;108707;-74
2022/08/16 11:29:47;;;;;;;12.10;10.20;;;;;;;27.59;65.86;99557.38;130410;1268;108757;-74
2022/08/16 11:32:53;;;;;;;10.40;9.30;;;;;;;27.58;65.57;99559.95;130361;1268;107509;-74
2022/08/16 11:35:58;;;;;;;13.10;9.80;;;;;;;27.54;65.39;99562.84;130400;1268;108299;-76
2022/08/16 11:39:04;;;;;;;10.90;9.70;;;;;;;27.50;65.56;99566.41;130481;1268;108630;-75
2022/08/16 11:42:09;;;;;;;10.80;9.70;;;;;;;27.48;65.19;99563.90;130499;1267;109676;-76
2022/08/16 11:45:15;;;;;;;10.20;9.20;;;;;;;27.44;65.17;99558.45;130463;1268;108651;-76
2022/08/16 11:48:20;;;;;;;10.30;9.30;;;;;;;27.39;65.19;99559.19;130485;1268;108699;-76
2022/08/16 11:51:26;;;;;;;10.90;9.70;;;;;;;27.38;65.24;99552.08;130456;1268;108659;-76
2022/08/16 11:54:31;;;;;;;16.40;10.20;;;;;;;27.36;65.23;99551.58;130401;1268;108740;-73
2022/08/16 11:57:38;;;;;;;11.80;10.70;;;;;;;27.37;65.39;99553.06;130312;1268;108659;-73
2022/08/16 12:00:45;;;;;;;13.20;9.50;;;;;;;27.38;65.44;99551.95;130330;1268;107687;-74
2022/08/16 12:03:51;;;;;;;10.50;9.50;;;;;;;27.39;65.02;99553.11;130354;1268;108711;-76
2022/08/16 12:06:56;;;;;;;11.20;9.60;;;;;;;27.41;65.78;99551.83;130496;1267;108819;-75
2022/08/16 12:10:04;;;;;;;10.70;9.30;;;;;;;27.46;65.55;99548.27;130464;1268;108495;-75
2022/08/16 12:13:10;;;;;;;11.60;10.40;;;;;;;27.49;65.02;99543.52;130472;1268;108754;-76
2022/08/16 12:16:18;;;;;;;12.20;10.00;;;;;;;27.49;65.48;99536.45;130517;1268;108673;-76
2022/08/16 12:19:24;;;;;;;12.10;11.00;;;;;;;27.49;65.02;99540.94;130444;1268;109734;-76
2022/08/16 12:22:30;;;;;;;12.50;10.50;;;;;;;27.50;64.80;99542.46;130391;1267;108716;-76
2022/08/16 12:25:36;;;;;;;11.60;10.10;;;;;;;27.56;64.74;99534.42;130344;1268;108635;-75
2022/08/16 12:28:41;;;;;;;11.80;10.00;;;;;;;27.64;65.17;99530.38;130306;1268;108731;-76
2022/08/16 12:31:47;;;;;;;13.00;9.70;;;;;;;27.68;64.90;99529.41;130327;1268;108998;-74
2022/08/16 12:34:53;;;;;;;13.00;9.50;;;;;;;27.69;64.09;99526.46;130402;1268;109774;-76
2022/08/16 12:38:00;;;;;;;10.80;9.30;;;;;;;27.70;63.91;99523.82;130348;1267;108731;-74
2022/08/16 12:41:05;;;;;;;10.00;8.80;;;;;;;27.75;63.71;99520.87;130372;1268;108860;-74
2022/08/16 12:44:11;;;;;;;11.70;8.90;;;;;;;27.76;63.61;99518.45;130358;1268;108823;-74
2022/08/16 12:50:41;;;;;;;9.00;7.90;;;;;;;27.74;63.10;99520.27;130376;1267;108777;-75
2022/08/16 12:53:46;;;;;;;11.50;8.80;;;;;;;27.72;63.17;99518.64;130362;1268;108903;-75
2022/08/16 12:56:52;;;;;;;9.50;8.60;;;;;;;27.70;63.29;99515.48;130450;1268;108771;-76
2022/08/16 12:59:59;;;;;;;9.60;7.80;;;;;;;27.65;63.63;99512.89;130371;1268;108637;-75
2022/08/16 13:03:05;;;;;;;10.70;7.70;;;;;;;27.60;61.96;99508.15;130377;1268;108738;-74
2022/08/16 13:06:11;;;;;;;9.20;8.30;;;;;;;27.54;61.87;99511.87;130345;1268;108877;-74
2022/08/16 13:09:21;;;;;;;10.20;8.30;;;;;;;27.51;62.53;99509.75;130442;1268;107850;-76
2022/08/16 13:12:27;;;;;;;9.80;7.90;;;;;;;27.45;62.60;99503.48;130368;1268;108948;-73
2022/08/16 13:15:33;;;;;;;8.90;6.80;;;;;;;27.42;61.77;99498.84;130370;1267;108860;-76
2022/08/16 13:18:38;;;;;;;8.00;7.20;;;;;;;27.43;62.03;99493.25;130367;1268;109525;-76
2022/08/16 13:21:43;;;;;;;8.20;7.40;;;;;;;27.43;61.83;99496.80;130339;1268;108784;-75
2022/08/16 13:24:49;;;;;;;8.50;7.60;;;;;;;27.40;62.16;99496.65;130403;1268;108941;-76
2022/08/16 13:28:04;;;;;;;8.50;6.00;;;;;;;27.33;61.47;99491.70;130342;1268;108570;-77
2022/08/16 13:31:10;;;;;;;10.20;5.90;;;;;;;27.31;60.79;99487.13;130363;1268;108724;-74
2022/08/16 13:34:16;;;;;;;10.20;6.80;;;;;;;27.31;60.36;99483.08;130382;1267;108904;-74
2022/08/16 13:37:21;;;;;;;8.80;7.20;;;;;;;27.34;61.22;99479.48;130375;1268;109723;-76
2022/08/16 13:40:27;;;;;;;9.40;7.30;;;;;;;27.34;61.59;99472.70;130234;1268;108851;-75
2022/08/16 13:43:33;;;;;;;7.50;6.80;;;;;;;27.29;61.40;99470.27;130198;1268;108054;-75
2022/08/16 13:46:40;;;;;;;10.10;7.70;;;;;;;27.22;61.58;99470.23;130248;1268;108915;-75
2022/08/16 13:49:45;;;;;;;8.30;7.00;;;;;;;27.15;61.26;99472.50;130304;1268;108781;-75
2022/08/16 13:52:51;;;;;;;9.70;7.50;;;;;;;27.14;61.45;99474.81;130345;1268;108755;-75
2022/08/16 13:55:57;;;;;;;9.00;7.80;;;;;;;27.11;60.93;99474.71;130355;1267;108726;-75
2022/08/16 13:59:03;;;;;;;8.20;6.90;;;;;;;27.09;61.36;99475.11;130370;1268;108873;-75
2022/08/16 14:02:10;;;;;;;8.90;6.80;;;;;;;27.08;61.39;99473.64;130364;1268;108934;-75
2022/08/16 14:05:16;;;;;;;8.70;6.70;;;;;;;27.07;61.54;99472.54;130367;1268;108033;-75
2022/08/16 14:08:22;;;;;;;9.40;6.50;;;;;;;27.08;61.37;99468.10;130372;1267;108538;-75
2022/08/16 14:11:28;;;;;;;8.20;7.10;;;;;;;27.10;60.96;99462.18;130372;1267;108407;-75
2022/08/16 14:14:34;;;;;;;8.00;6.80;;;;;;;27.14;60.91;99456.84;130328;1267;108570;-75